Terminal Aerodrome Forecast
Issued by NWS

Home | Current Version | Previous Version | Text Only | Print | Product List | Glossary On
Versions: 1 2 3 4 5 6 7 8 9 10 11 12 13 14 15 16 17 18 19 20 21 22 23 24 25 26 27 28 29 30 31 32 33 34 35 36 37 38 39
000
FTUS45 KBOU 221125
TAFAPA
TAF
KAPA 221125Z 2212/2312 26005KT P6SM FEW080 BKN150
     FM221500 VRB06KT P6SM SCT080 BKN150
     FM221800 12007KT P6SM VCSH SCT060 BKN140
     FM230000 15006KT P6SM SCT080 BKN200
     FM230400 19007KT P6SM SCT100 BKN200=

USA.gov is the U.S. government's official web portal to all federal, state and local government web resources and services.